createdAt,value
2022-11-01T00:01:08.884Z,97908.84
2022-11-01T00:03:35.515Z,97903.47
2022-11-01T00:06:02.343Z,97905.00
2022-11-01T00:08:29.275Z,97918.88
2022-11-01T00:11:07.234Z,97911.38
2022-11-01T00:13:34.457Z,97907.31
2022-11-01T00:16:01.190Z,97911.81
2022-11-01T00:18:27.848Z,97915.16
2022-11-01T00:20:54.520Z,97914.06
2022-11-01T00:23:21.235Z,97906.63
2022-11-01T00:25:47.929Z,97901.41
2022-11-01T00:28:14.655Z,97899.91
2022-11-01T00:30:41.445Z,97895.53
2022-11-01T00:33:08.763Z,97892.38
2022-11-01T00:35:38.776Z,97895.75
2022-11-01T00:38:08.755Z,97895.34
2022-11-01T00:40:35.408Z,97899.94
2022-11-01T00:43:02.064Z,97898.44
2022-11-01T00:45:28.694Z,97902.91
2022-11-01T00:47:55.321Z,97909.81
2022-11-01T00:50:21.938Z,97906.56
2022-11-01T00:52:48.695Z,97898.94
2022-11-01T00:55:15.474Z,97906.38
2022-11-01T00:57:44.646Z,97912.66
2022-11-01T01:00:16.696Z,97904.13
2022-11-01T01:02:43.461Z,97905.78
2022-11-01T01:05:10.390Z,97909.31
2022-11-01T01:07:37.385Z,97905.78
2022-11-01T01:10:05.776Z,97899.75
2022-11-01T01:12:32.709Z,97911.88
2022-11-01T01:14:59.489Z,97906.38
2022-11-01T01:17:28.718Z,97912.19
2022-11-01T01:19:57.952Z,97913.09
2022-11-01T01:22:24.568Z,97917.56
2022-11-01T01:24:51.185Z,97917.56
2022-11-01T01:27:18.494Z,97918.06
2022-11-01T01:29:45.449Z,97923.88
2022-11-01T01:32:14.345Z,97913.69
2022-11-01T01:34:41.051Z,97926.31
2022-11-01T01:37:08.822Z,97925.00
2022-11-01T01:39:35.988Z,97920.59
2022-11-01T01:42:12.196Z,97915.91
2022-11-01T01:44:48.657Z,97918.78
2022-11-01T01:47:21.646Z,97921.63
2022-11-01T01:52:23.756Z,97922.03
2022-11-01T01:54:51.335Z,97922.53
2022-11-01T01:57:19.084Z,97927.09
2022-11-01T01:59:46.329Z,97935.44
2022-11-01T02:02:14.533Z,97934.03
2022-11-01T02:04:44.900Z,97934.84
2022-11-01T02:07:12.071Z,97936.56
2022-11-01T02:09:39.671Z,97936.56
2022-11-01T02:12:06.969Z,97942.38
2022-11-01T02:14:33.790Z,97942.75
2022-11-01T02:17:07.069Z,97951.81
2022-11-01T02:20:00.327Z,97960.84
2022-11-01T02:22:47.333Z,97963.09
2022-11-01T02:25:35.421Z,97965.13
2022-11-01T02:28:40.886Z,97981.06
2022-11-01T02:31:31.210Z,97981.69
2022-11-01T02:34:08.589Z,97996.81
2022-11-01T02:36:44.513Z,98010.22
2022-11-01T02:39:22.099Z,98013.78
2022-11-01T02:41:55.587Z,98011.88
2022-11-01T02:44:27.269Z,98010.22
2022-11-01T02:47:02.129Z,98017.06
2022-11-01T02:49:37.465Z,98022.22
2022-11-01T02:52:06.681Z,98034.00
2022-11-01T02:54:44.316Z,98034.00
2022-11-01T02:57:16.741Z,98014.53
2022-11-01T02:59:45.810Z,98011.47
2022-11-01T03:02:39.495Z,98027.34
2022-11-01T03:05:10.941Z,98043.19
2022-11-01T03:07:39.986Z,98048.41
2022-11-01T03:10:07.490Z,98048.91
2022-11-01T03:12:44.849Z,98051.88
2022-11-01T03:15:21.520Z,98068.03
2022-11-01T03:17:56.562Z,98082.56
2022-11-01T03:20:47.488Z,98084.50
2022-11-01T03:23:31.759Z,98084.22
2022-11-01T03:26:00.592Z,98096.28
2022-11-01T03:28:37.129Z,98110.03
2022-11-01T03:31:10.379Z,98119.91
2022-11-01T03:33:44.693Z,98131.91
2022-11-01T03:36:16.142Z,98139.03
2022-11-01T03:38:48.471Z,98139.84
2022-11-01T03:41:19.562Z,98139.56
2022-11-01T03:43:47.836Z,98148.91
2022-11-01T03:46:15.631Z,98161.00
2022-11-01T03:48:42.525Z,98170.34
2022-11-01T03:51:09.333Z,98178.06
2022-11-01T03:53:36.189Z,98194.84
2022-11-01T03:56:02.905Z,98196.97
2022-11-01T03:58:41.867Z,98202.94
2022-11-01T04:01:09.554Z,98224.38
2022-11-01T04:03:36.629Z,98234.91
2022-11-01T04:06:04.313Z,98234.75
2022-11-01T04:08:31.738Z,98241.13
2022-11-01T04:10:58.717Z,98239.59
2022-11-01T04:13:25.424Z,98248.03
2022-11-01T04:16:10.869Z,98263.00
2022-11-01T04:18:55.751Z,98275.16
2022-11-01T04:21:25.823Z,98275.22
2022-11-01T04:23:52.784Z,98293.13
2022-11-01T04:26:21.870Z,98291.25
2022-11-01T04:28:58.151Z,98288.06
2022-11-01T04:31:30.063Z,98311.72
2022-11-01T04:33:58.264Z,98330.97
2022-11-01T04:36:25.633Z,98334.06
2022-11-01T04:38:55.789Z,98334.09
2022-11-01T04:41:27.085Z,98350.56
2022-11-01T04:43:55.491Z,98370.06
2022-11-01T04:46:22.492Z,98376.63
2022-11-01T04:48:49.614Z,98382.97
2022-11-01T04:51:16.233Z,98404.03
2022-11-01T04:53:42.895Z,98403.22
2022-11-01T04:56:13.480Z,98406.78
2022-11-01T04:58:44.750Z,98398.56
2022-11-01T05:01:14.479Z,98392.00
2022-11-01T05:03:41.445Z,98381.09
2022-11-01T05:06:08.125Z,98400.78
2022-11-01T05:08:35.014Z,98398.31
2022-11-01T05:11:02.005Z,98410.34
2022-11-01T05:13:28.651Z,98416.69
2022-11-01T05:16:17.967Z,98425.94
2022-11-01T05:18:44.613Z,98444.06
2022-11-01T05:21:11.921Z,98445.13
2022-11-01T05:23:38.628Z,98451.16
2022-11-01T05:26:05.597Z,98441.31
2022-11-01T05:28:32.223Z,98455.00
2022-11-01T05:30:58.912Z,98457.19
2022-11-01T05:33:25.972Z,98463.22
2022-11-01T05:35:52.708Z,98465.44
2022-11-01T05:38:19.403Z,98467.09
2022-11-01T05:40:46.040Z,98474.78
2022-11-01T05:43:12.642Z,98478.88
2022-11-01T05:45:39.298Z,98473.13
2022-11-01T05:48:06.138Z,98470.16
2022-11-01T05:50:32.798Z,98468.25
2022-11-01T05:53:10.323Z,98464.94
2022-11-01T05:55:37.843Z,98461.69
2022-11-01T05:58:04.823Z,98464.13
2022-11-01T06:00:33.014Z,98461.41
2022-11-01T06:03:00.403Z,98463.59
2022-11-01T06:05:28.358Z,98447.72
2022-11-01T06:07:55.432Z,98450.16
2022-11-01T06:10:22.131Z,98460.56
2022-11-01T06:12:48.780Z,98462.75
2022-11-01T06:15:15.506Z,98467.13
2022-11-01T06:17:42.330Z,98464.91
2022-11-01T06:20:09.459Z,98470.38
2022-11-01T06:22:36.613Z,98465.44
2022-11-01T06:25:05.460Z,98479.13
2022-11-01T06:27:32.430Z,98474.19
2022-11-01T06:29:59.072Z,98474.69
2022-11-01T06:32:25.705Z,98471.91
2022-11-01T06:34:52.369Z,98469.72
2022-11-01T06:37:19.099Z,98474.06
2022-11-01T06:39:45.748Z,98463.63
2022-11-01T06:42:12.338Z,98459.75
2022-11-01T06:44:38.962Z,98461.63
2022-11-01T06:47:05.721Z,98458.03
2022-11-01T06:49:32.403Z,98459.41
2022-11-01T06:51:59.170Z,98462.69
2022-11-01T06:54:25.936Z,98458.28
2022-11-01T06:56:52.567Z,98467.56
2022-11-01T06:59:19.391Z,98461.53
2022-11-01T07:01:46.153Z,98459.88
2022-11-01T07:04:12.985Z,98459.28
2022-11-01T07:06:40.106Z,98467.75
2022-11-01T07:09:06.935Z,98462.53
2022-11-01T07:11:34.053Z,98463.91
2022-11-01T07:14:00.696Z,98463.34
2022-11-01T07:16:27.822Z,98467.44
2022-11-01T07:18:54.758Z,98464.66
2022-11-01T07:21:21.841Z,98464.63
2022-11-01T07:23:48.608Z,98477.22
2022-11-01T07:26:15.592Z,98483.25
2022-11-01T07:28:42.336Z,98478.00
2022-11-01T07:31:08.966Z,98493.88
2022-11-01T07:33:35.815Z,98489.75
2022-11-01T07:36:03.673Z,98491.91
2022-11-01T07:38:30.381Z,98500.97
2022-11-01T07:40:57.087Z,98505.88
2022-11-01T07:43:24.005Z,98511.38
2022-11-01T07:45:50.906Z,98515.19
2022-11-01T07:48:19.098Z,98517.63
2022-11-01T07:50:46.548Z,98515.69
2022-11-01T07:53:18.792Z,98526.69
2022-11-01T07:55:46.229Z,98533.81
2022-11-01T07:58:13.921Z,98539.00
2022-11-01T08:00:41.633Z,98549.69
2022-11-01T08:03:10.319Z,98551.88
2022-11-01T08:05:37.525Z,98556.50
2022-11-01T08:08:05.632Z,98557.84
2022-11-01T08:10:33.802Z,98560.31
2022-11-01T08:13:07.203Z,98557.03
2022-11-01T08:15:34.638Z,98549.59
2022-11-01T08:18:02.062Z,98556.75
2022-11-01T08:20:28.980Z,98558.94
2022-11-01T08:22:56.122Z,98557.31
2022-11-01T08:25:22.965Z,98558.13
2022-11-01T08:27:49.664Z,98573.22
2022-11-01T08:30:17.981Z,98576.78
2022-11-01T08:32:45.308Z,98581.72
2022-11-01T08:35:12.530Z,98589.69
2022-11-01T08:37:48.892Z,98595.13
2022-11-01T08:40:15.579Z,98601.69
2022-11-01T08:42:42.209Z,98613.19
2022-11-01T08:45:09.092Z,98619.22
2022-11-01T08:47:35.975Z,98627.69
2022-11-01T08:50:04.923Z,98620.00
2022-11-01T08:55:19.077Z,98619.41
2022-11-01T08:57:45.762Z,98622.41
2022-11-01T09:00:14.262Z,98621.94
2022-11-01T09:02:41.248Z,98614.25
2022-11-01T09:05:08.707Z,98625.28
2022-11-01T09:08:01.789Z,98629.66
2022-11-01T09:10:37.479Z,98633.47
2022-11-01T09:13:04.854Z,98632.66
2022-11-01T09:15:33.629Z,98624.44
2022-11-01T09:18:14.583Z,98625.78
2022-11-01T09:20:42.281Z,98637.84
2022-11-01T09:23:09.068Z,98641.72
2022-11-01T09:25:36.811Z,98657.03
2022-11-01T09:28:03.829Z,98662.50
2022-11-01T09:30:30.590Z,98655.91
2022-11-01T09:32:57.422Z,98658.06
2022-11-01T09:35:24.052Z,98665.22
2022-11-01T09:37:58.682Z,98664.66
2022-11-01T09:40:44.396Z,98670.16
2022-11-01T09:43:21.075Z,98668.81
2022-11-01T09:45:50.954Z,98674.03
2022-11-01T09:48:18.647Z,98685.03
2022-11-01T09:50:51.787Z,98685.59
2022-11-01T09:53:22.314Z,98693.06
2022-11-01T09:56:05.493Z,98690.03
2022-11-01T09:58:41.294Z,98696.34
2022-11-01T10:01:17.299Z,98702.69
2022-11-01T10:03:56.483Z,98706.00
2022-11-01T10:06:28.045Z,98702.44
2022-11-01T10:08:59.344Z,98711.22
2022-11-01T10:11:44.192Z,98704.91
2022-11-01T10:14:26.089Z,98699.91
2022-11-01T10:17:07.109Z,98697.94
2022-11-01T10:19:35.506Z,98693.75
2022-11-01T10:22:13.146Z,98693.75
2022-11-01T10:25:16.041Z,98705.47
2022-11-01T10:28:01.041Z,98713.97
2022-11-01T10:30:31.398Z,98724.72
2022-11-01T10:33:43.223Z,98725.84
2022-11-01T10:36:15.906Z,98730.59
2022-11-01T10:42:30.943Z,98757.63
2022-11-01T10:45:08.959Z,98757.09
2022-11-01T10:47:44.320Z,98754.16
2022-11-01T10:50:20.409Z,98769.81
2022-11-01T10:53:00.309Z,98767.13
2022-11-01T10:55:49.450Z,98741.34
2022-11-01T10:58:21.115Z,98730.41
2022-11-01T11:00:48.733Z,98749.00
2022-11-01T11:03:26.199Z,98768.47
2022-11-01T11:05:54.375Z,98760.81
2022-11-01T11:08:23.955Z,98761.06
2022-11-01T11:10:51.816Z,98759.97
2022-11-01T11:13:31.667Z,98752.00
2022-11-01T11:16:06.360Z,98761.31
2022-11-01T11:18:38.464Z,98760.47
2022-11-01T11:21:27.015Z,98756.91
2022-11-01T11:23:55.253Z,98755.53
2022-11-01T11:26:22.111Z,98746.19
2022-11-01T11:28:56.139Z,98743.16
2022-11-01T11:31:32.098Z,98750.59
2022-11-01T11:34:21.561Z,98753.84
2022-11-01T11:36:49.990Z,98756.03
2022-11-01T11:39:59.287Z,98750.53
2022-11-01T11:42:27.119Z,98751.03
2022-11-01T11:44:56.614Z,98755.19
2022-11-01T11:47:26.176Z,98749.69
2022-11-01T11:49:54.295Z,98745.56
2022-11-01T11:55:42.998Z,98734.69
2022-11-01T11:58:49.630Z,98740.72
2022-11-01T12:01:23.185Z,98742.34
2022-11-01T12:04:05.979Z,98754.41
2022-11-01T12:06:38.987Z,98751.13
2022-11-01T12:09:05.987Z,98744.53
2022-11-01T12:11:46.782Z,98741.81
2022-11-01T12:14:24.248Z,98740.72
2022-11-01T12:16:51.275Z,98725.34
2022-11-01T12:19:28.606Z,98720.38
2022-11-01T12:21:58.868Z,98716.22
2022-11-01T12:24:39.922Z,98716.50
2022-11-01T12:27:14.648Z,98711.56
2022-11-01T12:29:47.584Z,98710.47
2022-11-01T12:32:26.075Z,98701.72
2022-11-01T12:34:55.209Z,98692.34
2022-11-01T12:37:34.274Z,98687.09
2022-11-01T12:40:24.194Z,98687.66
2022-11-01T12:42:57.435Z,98688.72
2022-11-01T12:45:34.312Z,98680.25
2022-11-01T12:48:03.972Z,98690.91
2022-11-01T12:51:03.155Z,98691.19
2022-11-01T12:53:41.566Z,98690.09
2022-11-01T12:56:08.450Z,98687.88
2022-11-01T12:58:36.403Z,98693.34
2022-11-01T13:01:15.315Z,98689.50
2022-11-01T13:04:06.123Z,98685.88
2022-11-01T13:06:55.521Z,98676.50
2022-11-01T13:09:37.384Z,98679.75
2022-11-01T13:12:20.047Z,98677.22
2022-11-01T13:15:04.789Z,98693.91
2022-11-01T13:18:05.982Z,98679.91
2022-11-01T13:20:52.347Z,98681.56
2022-11-01T13:23:36.913Z,98685.47
2022-11-01T13:26:35.859Z,98684.91
2022-11-01T13:31:44.478Z,98674.09
2022-11-01T13:34:27.117Z,98671.44
2022-11-01T13:37:13.181Z,98676.69
2022-11-01T13:39:45.740Z,98680.81
2022-11-01T13:42:18.945Z,98667.63
2022-11-01T13:45:07.455Z,98671.50
2022-11-01T13:47:43.194Z,98672.56
2022-11-01T13:50:49.947Z,98657.75
2022-11-01T13:53:32.954Z,98653.59
2022-11-01T13:56:06.851Z,98653.84
2022-11-01T13:58:33.995Z,98642.25
2022-11-01T14:01:30.306Z,98649.31
2022-11-01T14:04:17.390Z,98641.66
2022-11-01T14:06:51.794Z,98636.78
2022-11-01T14:09:26.274Z,98634.63
2022-11-01T14:12:03.103Z,98631.88
2022-11-01T14:14:29.586Z,98641.75
2022-11-01T14:17:22.004Z,98637.38
2022-11-01T14:20:00.735Z,98633.00
2022-11-01T14:22:29.462Z,98628.94
2022-11-01T14:24:59.775Z,98614.41
2022-11-01T14:27:32.391Z,98624.84
2022-11-01T14:29:59.044Z,98621.03
2022-11-01T14:32:30.602Z,98631.19
2022-11-01T14:35:24.206Z,98645.19
2022-11-01T14:37:53.722Z,98677.88
2022-11-01T14:40:29.434Z,98708.63
2022-11-01T14:43:06.318Z,98668.13
2022-11-01T14:45:34.774Z,98671.75
2022-11-01T14:48:07.253Z,98682.16
2022-11-01T14:51:11.353Z,98674.00
2022-11-01T14:53:40.050Z,98666.59
2022-11-01T14:56:17.526Z,98666.38
2022-11-01T14:58:44.885Z,98668.28
2022-11-01T15:01:23.455Z,98648.84
2022-11-01T15:04:00.374Z,98658.72
2022-11-01T15:06:30.554Z,98661.44
2022-11-01T15:09:06.863Z,98661.72
2022-11-01T15:11:35.524Z,98665.00
2022-11-01T15:14:06.848Z,98658.69
2022-11-01T15:16:35.538Z,98665.53
2022-11-01T15:19:07.499Z,98672.91
2022-11-01T15:21:35.185Z,98669.66
2022-11-01T15:24:03.123Z,98680.59
2022-11-01T15:26:33.802Z,98668.28
2022-11-01T15:29:04.038Z,98667.47
2022-11-01T15:31:31.899Z,98654.88
2022-11-01T15:34:02.096Z,98648.03
2022-11-01T15:36:39.353Z,98644.75
2022-11-01T15:39:19.286Z,98642.84
2022-11-01T15:41:46.741Z,98668.84
2022-11-01T15:44:23.808Z,98664.19
2022-11-01T15:46:54.574Z,98669.13
2022-11-01T15:49:29.903Z,98675.16
2022-11-01T15:52:06.337Z,98666.38
2022-11-01T15:54:47.977Z,98673.78
2022-11-01T15:57:22.516Z,98670.22
2022-11-01T16:00:25.424Z,98674.03
2022-11-01T16:03:04.381Z,98681.72
2022-11-01T16:05:48.857Z,98665.84
2022-11-01T16:08:37.078Z,98672.41
2022-11-01T16:11:04.680Z,98679.25
2022-11-01T16:13:33.652Z,98681.44
2022-11-01T16:16:05.768Z,98683.91
2022-11-01T16:18:41.638Z,98682.78
2022-11-01T16:21:28.766Z,98682.78
2022-11-01T16:24:08.426Z,98678.41
2022-11-01T16:27:01.360Z,98671.28
2022-11-01T16:29:50.660Z,98674.56
2022-11-01T16:32:25.004Z,98679.22
2022-11-01T16:34:51.965Z,98680.28
2022-11-01T16:37:22.437Z,98675.34
2022-11-01T16:39:57.976Z,98681.59
2022-11-01T16:42:26.501Z,98675.03
2022-11-01T16:44:58.342Z,98670.94
2022-11-01T16:47:29.813Z,98670.38
2022-11-01T16:49:57.932Z,98670.63
2022-11-01T16:52:29.776Z,98681.28
2022-11-01T16:55:17.172Z,98695.75
2022-11-01T16:57:47.867Z,98698.94
2022-11-01T17:00:15.652Z,98703.56
2022-11-01T17:02:42.750Z,98695.06
2022-11-01T17:05:21.548Z,98693.13
2022-11-01T17:07:49.977Z,98692.31
2022-11-01T17:10:25.800Z,98689.03
2022-11-01T17:12:53.921Z,98684.38
2022-11-01T17:15:20.681Z,98686.81
2022-11-01T17:17:49.081Z,98681.34
2022-11-01T17:20:22.965Z,98679.13
2022-11-01T17:22:54.143Z,98685.38
2022-11-01T17:25:27.753Z,98690.84
2022-11-01T17:27:55.335Z,98693.31
2022-11-01T17:30:22.799Z,98700.44
2022-11-01T17:32:49.518Z,98696.63
2022-11-01T17:35:16.275Z,98710.81
2022-11-01T17:37:43.252Z,98700.44
2022-11-01T17:40:27.092Z,98703.19
2022-11-01T17:42:54.532Z,98700.72
2022-11-01T17:45:22.986Z,98700.47
2022-11-01T17:47:52.583Z,98710.81
2022-11-01T17:50:19.781Z,98715.78
2022-11-01T17:52:47.387Z,98717.41
2022-11-01T17:55:14.618Z,98722.06
2022-11-01T17:57:42.891Z,98727.00
2022-11-01T18:00:10.894Z,98726.19
2022-11-01T18:02:37.829Z,98730.81
2022-11-01T18:05:05.197Z,98739.53
2022-11-01T18:07:39.230Z,98746.91
2022-11-01T18:10:15.655Z,98749.66
2022-11-01T18:12:57.510Z,98745.00
2022-11-01T18:15:43.168Z,98752.41
2022-11-01T18:18:18.768Z,98738.78
2022-11-01T18:20:55.643Z,98759.56
2022-11-01T18:23:22.465Z,98759.63
2022-11-01T18:25:51.395Z,98765.91
2022-11-01T18:28:24.092Z,98766.19
2022-11-01T18:31:00.767Z,98777.16
2022-11-01T18:33:48.500Z,98779.59
2022-11-01T18:36:28.119Z,98772.75
2022-11-01T18:38:57.738Z,98786.94
2022-11-01T18:41:24.414Z,98784.75
2022-11-01T18:43:54.594Z,98796.16
2022-11-01T18:46:26.894Z,98780.28
2022-11-01T18:49:00.109Z,98774.75
2022-11-01T18:51:29.967Z,98771.47
2022-11-01T18:54:27.683Z,98773.13
2022-11-01T18:56:59.882Z,98789.50
2022-11-01T18:59:27.542Z,98783.44
2022-11-01T19:02:12.254Z,98785.63
2022-11-01T19:04:42.438Z,98791.06
2022-11-01T19:07:22.787Z,98793.78
2022-11-01T19:09:55.237Z,98791.00
2022-11-01T19:12:31.415Z,98797.59
2022-11-01T19:15:02.899Z,98799.19
2022-11-01T19:17:38.012Z,98804.91
2022-11-01T19:20:29.503Z,98803.56
2022-11-01T19:23:10.131Z,98801.66
2022-11-01T19:25:37.135Z,98794.09
2022-11-01T19:28:33.266Z,98797.34
2022-11-01T19:31:07.475Z,98793.22
2022-11-01T19:33:38.160Z,98797.06
2022-11-01T19:36:14.587Z,98799.00
2022-11-01T19:38:45.026Z,98788.63
2022-11-01T19:41:17.861Z,98784.78
2022-11-01T19:43:44.657Z,98790.78
2022-11-01T19:46:15.461Z,98788.63
2022-11-01T19:48:42.915Z,98788.03
2022-11-01T19:51:20.527Z,98790.56
2022-11-01T19:53:47.646Z,98789.97
2022-11-01T19:56:21.733Z,98796.56
2022-11-01T19:58:55.012Z,98785.91
2022-11-01T20:01:31.995Z,98775.28
2022-11-01T20:04:01.259Z,98791.16
2022-11-01T20:06:29.711Z,98809.72
2022-11-01T20:09:01.467Z,98787.56
2022-11-01T20:11:28.110Z,98790.31
2022-11-01T20:13:54.754Z,98794.16
2022-11-01T20:16:21.429Z,98787.28
2022-11-01T20:18:48.044Z,98799.31
2022-11-01T20:21:14.739Z,98799.84
2022-11-01T20:23:41.400Z,98800.94
2022-11-01T20:26:08.230Z,98793.28
2022-11-01T20:28:35.455Z,98801.19
2022-11-01T20:31:02.080Z,98808.53
2022-11-01T20:33:28.753Z,98806.56
2022-11-01T20:35:55.682Z,98808.72
2022-11-01T20:38:22.479Z,98806.25
2022-11-01T20:40:49.255Z,98812.50
2022-11-01T20:43:16.051Z,98815.25
2022-11-01T20:45:42.650Z,98808.91
2022-11-01T20:48:10.166Z,98804.28
2022-11-01T20:50:36.833Z,98809.97
2022-11-01T20:53:05.571Z,98811.03
2022-11-01T20:55:32.581Z,98820.53
2022-11-01T20:57:59.422Z,98838.31
2022-11-01T21:00:27.025Z,98845.94
2022-11-01T21:02:58.059Z,98850.88
2022-11-01T21:05:29.587Z,98842.16
2022-11-01T21:08:08.188Z,98848.75
2022-11-01T21:10:42.567Z,98837.28
2022-11-01T21:13:30.981Z,98844.41
2022-11-01T21:15:59.383Z,98854.75
2022-11-01T21:18:33.789Z,98852.53
2022-11-01T21:21:15.902Z,98853.88
2022-11-01T21:23:46.446Z,98866.72
2022-11-01T21:26:19.312Z,98856.03
2022-11-01T21:28:58.732Z,98870.59
2022-11-01T21:31:39.010Z,98875.97
2022-11-01T21:34:12.039Z,98878.69
2022-11-01T21:36:43.296Z,98875.47
2022-11-01T21:39:17.674Z,98890.75
2022-11-01T21:42:02.036Z,98892.09
2022-11-01T21:44:39.963Z,98895.06
2022-11-01T21:47:07.602Z,98895.66
2022-11-01T21:49:36.373Z,98899.25
2022-11-01T21:52:06.542Z,98905.59
2022-11-01T21:54:35.322Z,98916.50
2022-11-01T21:57:14.805Z,98909.69
2022-11-01T22:00:07.791Z,98920.34
2022-11-01T22:02:40.060Z,98920.88
2022-11-01T22:05:09.516Z,98926.31
2022-11-01T22:08:06.642Z,98924.16
2022-11-01T22:11:23.227Z,98932.34
2022-11-01T22:13:59.793Z,98944.66
2022-11-01T22:16:28.518Z,98960.22
2022-11-01T22:19:03.674Z,98970.84
2022-11-01T22:21:55.793Z,98964.59
2022-11-01T22:24:33.022Z,98967.91
2022-11-01T22:27:14.343Z,98973.03
2022-11-01T22:29:48.172Z,98983.97
2022-11-01T22:32:15.515Z,98989.94
2022-11-01T22:34:42.272Z,99001.63
2022-11-01T22:37:14.710Z,98998.16
2022-11-01T22:39:41.604Z,99002.19
2022-11-01T22:42:13.522Z,99009.25
2022-11-01T22:44:42.493Z,99019.03
2022-11-01T22:47:22.156Z,99015.72
2022-11-01T22:50:02.250Z,99017.09
2022-11-01T22:52:31.704Z,99020.75
2022-11-01T22:55:13.939Z,99028.94
2022-11-01T22:57:46.442Z,99044.81
2022-11-01T23:00:27.615Z,99047.53
2022-11-01T23:02:59.731Z,99044.81
2022-11-01T23:05:26.937Z,99058.44
2022-11-01T23:07:59.645Z,99058.72
2022-11-01T23:10:34.474Z,99080.81
2022-11-01T23:13:37.033Z,99087.09
2022-11-01T23:16:24.439Z,99096.13
2022-11-01T23:18:52.170Z,99101.09
2022-11-01T23:21:19.775Z,99103.81
2022-11-01T23:23:47.490Z,99117.53
2022-11-01T23:26:16.459Z,99119.25
2022-11-01T23:28:45.595Z,99122.53
2022-11-01T23:31:13.213Z,99127.50
2022-11-01T23:33:45.877Z,99133.78
2022-11-01T23:36:33.357Z,99145.25
2022-11-01T23:39:09.663Z,99143.06
2022-11-01T23:41:39.542Z,99146.56
2022-11-01T23:44:27.538Z,99158.31
2022-11-01T23:47:17.597Z,99157.81
2022-11-01T23:49:46.483Z,99158.38
2022-11-01T23:52:35.482Z,99166.75
2022-11-01T23:55:03.438Z,99178.19
2022-11-01T23:57:30.301Z,99173.22
2022-11-01T23:59:57.106Z,99178.03
